createdAt,value
2023-07-26T00:01:34.965Z,75.68
2023-07-26T00:04:01.376Z,75.50
2023-07-26T00:06:27.863Z,75.89
2023-07-26T00:08:54.205Z,76.27
2023-07-26T00:11:20.575Z,76.13
2023-07-26T00:13:46.946Z,76.32
2023-07-26T00:16:13.416Z,76.23
2023-07-26T00:18:40.406Z,76.47
2023-07-26T00:21:07.272Z,76.60
2023-07-26T00:23:33.627Z,76.26
2023-07-26T00:26:00.018Z,76.56
2023-07-26T00:28:26.440Z,76.39
2023-07-26T00:30:52.843Z,76.69
2023-07-26T00:33:19.242Z,76.26
2023-07-26T00:35:45.629Z,76.71
2023-07-26T00:38:12.006Z,76.24
2023-07-26T00:40:40.030Z,76.61
2023-07-26T00:43:09.269Z,76.47
2023-07-26T00:45:37.030Z,76.78
2023-07-26T00:48:03.599Z,76.55
2023-07-26T00:50:29.998Z,77.20
2023-07-26T00:52:56.426Z,76.64
2023-07-26T00:55:22.775Z,76.93
2023-07-26T00:57:49.216Z,77.28
2023-07-26T01:00:15.625Z,77.29
2023-07-26T01:02:42.239Z,77.70
2023-07-26T01:05:08.897Z,77.36
2023-07-26T01:07:41.363Z,77.05
2023-07-26T01:10:15.035Z,77.46
2023-07-26T01:12:44.156Z,77.09
2023-07-26T01:15:11.853Z,77.56
2023-07-26T01:17:38.371Z,77.41
2023-07-26T01:20:04.975Z,77.80
2023-07-26T01:22:31.498Z,77.50
2023-07-26T01:24:58.172Z,77.81
2023-07-26T01:27:24.596Z,78.00
2023-07-26T01:29:55.546Z,77.85
2023-07-26T01:32:22.132Z,77.95
2023-07-26T01:34:48.500Z,77.62
2023-07-26T01:37:14.862Z,77.84
2023-07-26T01:39:41.311Z,78.19
2023-07-26T01:42:07.660Z,78.65
2023-07-26T01:44:37.773Z,78.70
2023-07-26T01:47:04.218Z,79.16
2023-07-26T01:49:30.572Z,78.61
2023-07-26T01:51:57.071Z,78.98
2023-07-26T01:54:23.451Z,79.20
2023-07-26T01:56:49.845Z,79.03
2023-07-26T01:59:16.191Z,78.94
2023-07-26T02:01:42.624Z,79.14
2023-07-26T02:04:09.094Z,79.18
2023-07-26T02:06:35.570Z,79.04
2023-07-26T02:09:02.055Z,79.36
2023-07-26T02:11:28.598Z,79.34
2023-07-26T02:13:54.998Z,79.67
2023-07-26T02:16:21.454Z,80.03
2023-07-26T02:18:47.852Z,79.77
2023-07-26T02:21:14.315Z,79.62
2023-07-26T02:23:40.706Z,79.66
2023-07-26T02:26:07.117Z,79.73
2023-07-26T02:28:33.562Z,79.96
2023-07-26T02:30:59.935Z,79.63
2023-07-26T02:33:26.326Z,79.39
2023-07-26T02:35:52.657Z,79.96
2023-07-26T02:38:19.054Z,79.57
2023-07-26T02:40:45.412Z,80.50
2023-07-26T02:43:11.806Z,80.54
2023-07-26T02:45:38.214Z,80.71
2023-07-26T02:48:04.726Z,80.39
2023-07-26T02:50:31.158Z,80.42
2023-07-26T02:52:57.596Z,80.59
2023-07-26T02:55:23.947Z,80.64
2023-07-26T02:57:50.337Z,80.11
2023-07-26T03:00:16.867Z,79.43
2023-07-26T03:02:43.445Z,80.04
2023-07-26T03:05:09.902Z,80.41
2023-07-26T03:07:36.510Z,79.72
2023-07-26T03:10:02.909Z,80.01
2023-07-26T03:12:29.261Z,79.87
2023-07-26T03:14:55.747Z,79.82
2023-07-26T03:17:23.515Z,80.25
2023-07-26T03:19:51.196Z,80.46
2023-07-26T03:22:17.652Z,80.05
2023-07-26T03:24:44.060Z,80.67
2023-07-26T03:27:10.462Z,79.96
2023-07-26T03:29:36.846Z,80.26
2023-07-26T03:32:03.194Z,80.48
2023-07-26T03:34:29.877Z,80.36
2023-07-26T03:36:56.367Z,80.66
2023-07-26T03:39:22.913Z,80.28
2023-07-26T03:41:49.272Z,80.45
2023-07-26T03:44:15.669Z,80.66
2023-07-26T03:46:42.042Z,80.35
2023-07-26T03:49:08.420Z,80.65
2023-07-26T03:51:34.864Z,79.95
2023-07-26T03:54:01.240Z,80.16
2023-07-26T03:56:27.678Z,80.19
2023-07-26T03:58:54.140Z,80.11
2023-07-26T04:01:20.543Z,80.09
2023-07-26T04:03:47.032Z,79.48
2023-07-26T04:06:13.649Z,80.13
2023-07-26T04:08:41.027Z,79.61
2023-07-26T04:11:07.825Z,79.80
2023-07-26T04:13:34.574Z,79.34
2023-07-26T04:16:01.455Z,79.54
2023-07-26T04:18:27.917Z,79.59
2023-07-26T04:20:54.607Z,79.54
2023-07-26T04:23:20.992Z,79.74
2023-07-26T04:25:51.137Z,79.40
2023-07-26T04:28:17.573Z,79.16
2023-07-26T04:30:44.930Z,79.05
2023-07-26T04:33:11.467Z,78.89
2023-07-26T04:35:37.851Z,79.03
2023-07-26T04:38:04.208Z,78.38
2023-07-26T04:40:30.781Z,78.34
2023-07-26T04:42:57.195Z,78.13
2023-07-26T04:45:23.651Z,77.70
2023-07-26T04:47:50.023Z,77.60
2023-07-26T04:50:16.437Z,77.55
2023-07-26T04:52:42.858Z,77.18
2023-07-26T04:55:09.438Z,76.61
2023-07-26T04:57:38.418Z,76.23
2023-07-26T05:00:05.008Z,76.02
2023-07-26T05:02:31.481Z,75.38
2023-07-26T05:04:57.874Z,75.58
2023-07-26T05:07:24.277Z,75.13
2023-07-26T05:09:50.649Z,74.95
2023-07-26T05:12:18.032Z,74.68
2023-07-26T05:14:45.420Z,74.84
2023-07-26T05:17:11.801Z,74.47
2023-07-26T05:19:38.261Z,74.29
2023-07-26T05:22:04.778Z,73.63
2023-07-26T05:24:31.300Z,73.85
2023-07-26T05:26:59.307Z,73.77
2023-07-26T05:29:27.732Z,73.46
2023-07-26T05:31:54.154Z,73.68
2023-07-26T05:34:20.563Z,73.21
2023-07-26T05:36:46.989Z,72.88
2023-07-26T05:39:13.840Z,72.52
2023-07-26T05:41:40.299Z,72.79
2023-07-26T05:44:06.844Z,71.85
2023-07-26T05:46:33.524Z,70.92
2023-07-26T05:48:59.930Z,70.75
2023-07-26T05:51:26.286Z,70.60
2023-07-26T05:53:52.627Z,71.56
2023-07-26T05:56:19.050Z,71.40
2023-07-26T05:58:47.098Z,71.28
2023-07-26T06:01:13.761Z,71.71
2023-07-26T06:03:40.158Z,71.68
2023-07-26T06:06:07.044Z,71.26
2023-07-26T06:08:33.499Z,71.45
2023-07-26T06:10:59.929Z,71.01
2023-07-26T06:13:26.303Z,71.79
2023-07-26T06:15:52.735Z,72.03
2023-07-26T06:18:19.164Z,73.24
2023-07-26T06:20:45.569Z,73.74
2023-07-26T06:23:11.950Z,73.58
2023-07-26T06:25:38.425Z,73.52
2023-07-26T06:28:04.799Z,73.29
2023-07-26T06:30:31.407Z,72.92
2023-07-26T06:32:57.849Z,72.42
2023-07-26T06:35:24.212Z,72.21
2023-07-26T06:37:50.577Z,72.19
2023-07-26T06:40:16.997Z,72.21
2023-07-26T06:42:43.340Z,72.84
2023-07-26T06:45:09.864Z,72.98
2023-07-26T06:47:36.302Z,72.54
2023-07-26T06:50:03.181Z,73.63
2023-07-26T06:52:31.053Z,74.81
2023-07-26T06:54:57.470Z,74.68
2023-07-26T06:57:23.834Z,74.25
2023-07-26T06:59:50.200Z,73.72
2023-07-26T07:02:16.577Z,73.04
2023-07-26T07:04:42.964Z,72.92
2023-07-26T07:07:09.384Z,72.93
2023-07-26T07:09:35.809Z,72.59
2023-07-26T07:12:02.195Z,72.45
2023-07-26T07:14:28.545Z,72.77
2023-07-26T07:16:54.924Z,71.75
2023-07-26T07:19:21.263Z,72.44
2023-07-26T07:21:47.693Z,70.69
2023-07-26T07:24:14.699Z,71.06
2023-07-26T07:26:41.059Z,70.98
2023-07-26T07:29:07.478Z,70.10
2023-07-26T07:31:34.124Z,69.92
2023-07-26T07:34:00.715Z,69.87
2023-07-26T07:36:27.085Z,69.60
2023-07-26T07:38:53.475Z,69.15
2023-07-26T07:41:19.832Z,69.48
2023-07-26T07:43:46.189Z,68.11
2023-07-26T07:46:12.604Z,67.55
2023-07-26T07:48:41.105Z,66.60
2023-07-26T07:51:07.470Z,66.56
2023-07-26T07:53:33.866Z,66.08
2023-07-26T07:56:00.324Z,65.80
2023-07-26T07:58:27.865Z,65.51
2023-07-26T08:00:58.141Z,66.73
2023-07-26T08:03:24.554Z,66.01
2023-07-26T08:05:51.361Z,65.66
2023-07-26T08:08:17.834Z,65.78
2023-07-26T08:10:44.414Z,65.56
2023-07-26T08:13:10.774Z,65.71
2023-07-26T08:15:40.438Z,64.07
2023-07-26T08:18:06.910Z,62.63
2023-07-26T08:20:36.586Z,62.61
2023-07-26T08:23:03.310Z,63.88
2023-07-26T08:25:30.363Z,62.63
2023-07-26T08:27:56.828Z,62.57
2023-07-26T08:30:23.284Z,63.24
2023-07-26T08:32:52.548Z,63.65
2023-07-26T08:35:20.375Z,63.79
2023-07-26T08:37:46.783Z,64.35
2023-07-26T08:40:13.272Z,63.69
2023-07-26T08:42:39.623Z,62.19
2023-07-26T08:45:06.641Z,60.83
2023-07-26T08:47:33.112Z,60.57
2023-07-26T08:49:59.573Z,60.47
2023-07-26T08:52:25.991Z,61.57
2023-07-26T08:54:52.616Z,61.95
2023-07-26T08:57:19.269Z,58.76
2023-07-26T08:59:45.656Z,56.82
2023-07-26T09:02:12.549Z,53.72
2023-07-26T09:04:39.008Z,52.39
2023-07-26T09:07:05.647Z,52.79
2023-07-26T09:09:32.627Z,52.93
2023-07-26T09:11:59.072Z,55.56
2023-07-26T09:14:27.407Z,54.16
2023-07-26T09:16:57.658Z,54.07
2023-07-26T09:19:34.089Z,53.87
2023-07-26T09:22:01.201Z,53.27
2023-07-26T09:24:29.497Z,52.49
2023-07-26T09:26:56.929Z,49.17
2023-07-26T09:29:23.358Z,46.97
2023-07-26T09:31:49.742Z,47.90
2023-07-26T09:34:18.083Z,48.52
2023-07-26T09:36:51.620Z,48.02
2023-07-26T09:39:28.084Z,47.45
2023-07-26T09:42:07.491Z,47.83
2023-07-26T09:44:34.139Z,48.46
2023-07-26T09:47:00.745Z,49.49
2023-07-26T09:49:28.364Z,54.29
2023-07-26T09:54:33.036Z,58.22
2023-07-26T09:57:00.550Z,64.13
2023-07-26T09:59:28.946Z,67.62
2023-07-26T10:01:55.831Z,72.50
2023-07-26T10:04:22.172Z,73.11
2023-07-26T10:06:48.545Z,75.77
2023-07-26T10:09:15.876Z,78.00
2023-07-26T10:11:43.181Z,77.34
2023-07-26T10:14:10.396Z,77.18
2023-07-26T10:16:37.192Z,78.82
2023-07-26T10:19:04.063Z,80.16
2023-07-26T10:21:30.950Z,78.25
2023-07-26T10:23:58.505Z,78.25
2023-07-26T10:26:27.005Z,77.99
2023-07-26T10:28:53.551Z,77.91
2023-07-26T10:31:23.645Z,77.64
2023-07-26T10:33:50.146Z,77.83
2023-07-26T10:36:17.566Z,78.82
2023-07-26T10:38:50.328Z,77.44
2023-07-26T10:41:28.589Z,77.17
2023-07-26T10:44:07.816Z,76.42
2023-07-26T10:46:51.326Z,75.25
2023-07-26T10:49:21.847Z,76.16
2023-07-26T10:51:52.042Z,77.37
2023-07-26T10:54:37.286Z,79.05
2023-07-26T10:57:33.501Z,76.26
2023-07-26T11:00:05.315Z,76.36
2023-07-26T11:02:36.237Z,77.65
2023-07-26T11:05:03.408Z,77.26
2023-07-26T11:07:48.795Z,75.96
2023-07-26T11:10:19.065Z,75.99
2023-07-26T11:12:45.475Z,75.96
2023-07-26T11:16:13.622Z,75.94
2023-07-26T11:17:58.318Z,77.68
2023-07-26T11:20:24.854Z,76.18
2023-07-26T11:22:51.310Z,74.21
2023-07-26T11:25:17.792Z,73.67
2023-07-26T11:27:45.166Z,76.54
2023-07-26T11:30:15.477Z,75.32
2023-07-26T11:32:48.789Z,74.42
2023-07-26T11:35:23.263Z,71.39
2023-07-26T11:37:51.185Z,76.17
2023-07-26T11:40:17.563Z,72.34
2023-07-26T11:42:43.940Z,71.47
2023-07-26T11:45:10.630Z,70.30
2023-07-26T11:47:37.042Z,71.37
2023-07-26T11:50:04.134Z,72.03
2023-07-26T11:52:30.924Z,73.62
2023-07-26T11:54:59.106Z,75.38
2023-07-26T11:57:29.060Z,74.95
2023-07-26T11:59:56.089Z,75.88
2023-07-26T12:02:25.554Z,73.80
2023-07-26T12:05:10.942Z,74.68
2023-07-26T12:07:37.299Z,76.83
2023-07-26T12:10:03.716Z,78.96
2023-07-26T12:12:30.162Z,78.50
2023-07-26T12:14:57.386Z,77.42
2023-07-26T12:17:23.808Z,78.20
2023-07-26T12:19:50.677Z,77.52
2023-07-26T12:22:17.844Z,78.84
2023-07-26T12:24:50.589Z,78.17
2023-07-26T12:27:17.069Z,79.05
2023-07-26T12:29:43.416Z,80.40
2023-07-26T12:32:13.882Z,81.53
2023-07-26T12:34:43.460Z,79.59
2023-07-26T12:37:10.269Z,80.82
2023-07-26T12:39:39.831Z,79.77
2023-07-26T12:42:07.023Z,80.58
2023-07-26T12:44:34.300Z,80.17
2023-07-26T12:47:27.934Z,80.74
2023-07-26T12:49:48.436Z,78.24
2023-07-26T12:52:14.862Z,78.16
2023-07-26T12:54:41.240Z,77.49
2023-07-26T12:57:07.706Z,76.27
2023-07-26T12:59:43.379Z,75.73
2023-07-26T13:02:10.033Z,77.50
2023-07-26T13:04:36.567Z,76.73
2023-07-26T13:07:02.926Z,76.76
2023-07-26T13:09:29.329Z,74.94
2023-07-26T13:11:55.738Z,74.63
2023-07-26T13:14:22.086Z,78.00
2023-07-26T13:16:48.520Z,75.22
2023-07-26T13:19:14.891Z,75.95
2023-07-26T13:21:41.261Z,74.71
2023-07-26T13:24:07.652Z,74.25
2023-07-26T13:26:34.288Z,74.03
2023-07-26T13:29:02.070Z,74.56
2023-07-26T13:31:28.544Z,74.63
2023-07-26T13:33:54.967Z,74.81
2023-07-26T13:36:21.573Z,74.80
2023-07-26T13:38:47.970Z,73.06
2023-07-26T13:41:14.319Z,73.58
2023-07-26T13:43:40.681Z,75.56
2023-07-26T13:46:13.736Z,74.66
2023-07-26T13:48:50.421Z,74.37
2023-07-26T13:51:16.935Z,74.51
2023-07-26T13:53:43.365Z,74.32
2023-07-26T13:56:09.806Z,73.86
2023-07-26T13:58:36.230Z,75.48
2023-07-26T14:01:02.637Z,76.13
2023-07-26T14:03:29.082Z,76.70
2023-07-26T14:05:55.482Z,76.53
2023-07-26T14:08:21.977Z,75.71
2023-07-26T14:10:48.352Z,75.18
2023-07-26T14:13:15.681Z,75.33
2023-07-26T14:15:42.099Z,75.98
2023-07-26T14:18:08.539Z,78.38
2023-07-26T14:20:35.260Z,78.82
2023-07-26T14:23:01.651Z,77.45
2023-07-26T14:25:28.341Z,76.18
2023-07-26T14:27:55.167Z,78.05
2023-07-26T14:30:21.553Z,80.42
2023-07-26T14:32:47.955Z,82.66
2023-07-26T14:35:14.363Z,81.26
2023-07-26T14:37:40.765Z,79.50
2023-07-26T14:40:07.375Z,78.73
2023-07-26T14:42:33.768Z,78.82
2023-07-26T14:45:00.286Z,78.48
2023-07-26T14:47:27.146Z,78.75
2023-07-26T14:50:03.304Z,77.61
2023-07-26T14:52:30.707Z,79.17
2023-07-26T14:54:57.153Z,78.43
2023-07-26T14:57:23.529Z,78.72
2023-07-26T14:59:50.248Z,76.72
2023-07-26T15:02:19.828Z,74.65
2023-07-26T15:04:46.593Z,76.24
2023-07-26T15:07:13.413Z,76.16
2023-07-26T15:09:39.865Z,76.24
2023-07-26T15:12:07.106Z,74.99
2023-07-26T15:14:33.520Z,75.09
2023-07-26T15:16:59.958Z,74.46
2023-07-26T15:19:26.403Z,74.32
2023-07-26T15:21:52.923Z,74.46
2023-07-26T15:24:19.402Z,74.41
2023-07-26T15:26:45.838Z,75.47
2023-07-26T15:29:12.271Z,71.87
2023-07-26T15:31:38.685Z,74.00
2023-07-26T15:34:06.007Z,73.95
2023-07-26T15:36:32.556Z,71.74
2023-07-26T15:38:59.128Z,70.02
2023-07-26T15:41:34.012Z,71.18
2023-07-26T15:46:39.358Z,69.18
2023-07-26T15:49:08.340Z,68.96
2023-07-26T15:51:35.416Z,68.34
2023-07-26T15:54:01.962Z,69.80
2023-07-26T15:56:29.931Z,69.51
2023-07-26T15:58:56.381Z,69.75
2023-07-26T16:01:26.198Z,68.29
2023-07-26T16:03:53.857Z,69.68
2023-07-26T16:06:20.618Z,66.83
2023-07-26T16:11:17.442Z,67.71
2023-07-26T16:13:43.850Z,67.34
2023-07-26T16:19:12.618Z,69.51
2023-07-26T16:23:55.854Z,68.38
2023-07-26T16:26:22.217Z,68.72
2023-07-26T16:28:48.847Z,68.80
2023-07-26T16:31:16.237Z,68.05
2023-07-26T16:33:43.831Z,67.84
2023-07-26T16:36:10.305Z,68.37
2023-07-26T16:38:36.721Z,67.36
2023-07-26T16:41:03.133Z,68.30
2023-07-26T16:43:29.507Z,68.30
2023-07-26T16:45:56.016Z,69.36
2023-07-26T16:48:22.685Z,68.92
2023-07-26T16:50:49.104Z,67.77
2023-07-26T16:53:15.483Z,66.66
2023-07-26T16:55:42.868Z,66.85
2023-07-26T16:58:09.338Z,68.05
2023-07-26T17:00:36.184Z,67.35
2023-07-26T17:03:02.688Z,67.16
2023-07-26T17:05:29.268Z,68.19
2023-07-26T17:07:55.703Z,67.69
2023-07-26T17:10:22.105Z,68.86
2023-07-26T17:12:48.583Z,68.50
2023-07-26T17:15:16.031Z,69.00
2023-07-26T17:17:42.578Z,67.82
2023-07-26T17:20:09.221Z,67.74
2023-07-26T17:22:35.677Z,67.33
2023-07-26T17:25:02.119Z,69.04
2023-07-26T17:27:28.620Z,67.38
2023-07-26T17:29:55.074Z,67.05
2023-07-26T17:32:21.476Z,66.30
2023-07-26T17:34:47.872Z,66.71
2023-07-26T17:37:14.287Z,66.67
2023-07-26T17:39:40.645Z,67.96
2023-07-26T17:42:07.207Z,65.62
2023-07-26T17:44:36.163Z,67.41
2023-07-26T17:47:02.822Z,67.23
2023-07-26T17:49:29.288Z,66.38
2023-07-26T17:51:55.745Z,66.94
2023-07-26T17:54:22.125Z,66.97
2023-07-26T17:56:50.979Z,67.46
2023-07-26T17:59:18.708Z,67.53
2023-07-26T18:01:45.089Z,67.83
2023-07-26T18:04:11.499Z,66.45
2023-07-26T18:06:37.947Z,66.87
2023-07-26T18:09:05.732Z,67.74
2023-07-26T18:11:32.177Z,66.88
2023-07-26T18:13:58.588Z,66.72
2023-07-26T18:16:24.970Z,67.10
2023-07-26T18:18:51.997Z,67.34
2023-07-26T18:21:18.595Z,67.75
2023-07-26T18:23:45.064Z,69.42
2023-07-26T18:26:11.709Z,70.28
2023-07-26T18:28:40.411Z,70.17
2023-07-26T18:31:09.130Z,69.79
2023-07-26T18:33:36.232Z,70.95
2023-07-26T18:36:02.775Z,71.84
2023-07-26T18:38:30.227Z,72.19
2023-07-26T18:40:57.691Z,71.96
2023-07-26T18:43:24.138Z,72.21
2023-07-26T18:45:50.631Z,72.39
2023-07-26T18:48:17.140Z,71.40
2023-07-26T18:50:43.618Z,72.62
2023-07-26T18:53:10.236Z,73.46
2023-07-26T18:55:39.617Z,72.29
2023-07-26T18:58:06.046Z,71.74
2023-07-26T19:00:32.468Z,73.72
2023-07-26T19:02:58.981Z,72.50
2023-07-26T19:05:25.404Z,72.10
2023-07-26T19:07:51.745Z,70.99
2023-07-26T19:10:18.233Z,69.66
2023-07-26T19:12:44.738Z,70.12
2023-07-26T19:15:13.674Z,68.33
2023-07-26T19:17:40.123Z,67.99
2023-07-26T19:20:07.624Z,67.02
2023-07-26T19:22:33.997Z,67.10
2023-07-26T19:25:00.463Z,66.16
2023-07-26T19:27:26.955Z,66.64
2023-07-26T19:29:54.058Z,66.81
2023-07-26T19:32:20.454Z,66.24
2023-07-26T19:34:46.874Z,67.61
2023-07-26T19:37:13.276Z,68.35
2023-07-26T19:39:39.670Z,68.98
2023-07-26T19:42:06.662Z,69.15
2023-07-26T19:44:33.064Z,67.64
2023-07-26T19:46:59.450Z,66.75
2023-07-26T19:49:26.141Z,66.56
2023-07-26T19:51:52.488Z,66.99
2023-07-26T19:54:19.435Z,67.41
2023-07-26T19:56:45.850Z,67.88
2023-07-26T19:59:13.268Z,68.88
2023-07-26T20:01:41.643Z,67.93
2023-07-26T20:04:08.238Z,67.94
2023-07-26T20:06:34.929Z,67.78
2023-07-26T20:09:01.556Z,67.54
2023-07-26T20:11:27.959Z,68.13
2023-07-26T20:13:54.334Z,68.23
2023-07-26T20:16:21.890Z,68.69
2023-07-26T20:18:48.397Z,68.88
2023-07-26T20:21:14.754Z,68.16
2023-07-26T20:23:41.108Z,68.12
2023-07-26T20:26:07.520Z,69.00
2023-07-26T20:28:33.960Z,68.55
2023-07-26T20:31:01.872Z,69.85
2023-07-26T20:33:28.253Z,69.97
2023-07-26T20:35:54.787Z,69.73
2023-07-26T20:38:21.149Z,70.08
2023-07-26T20:40:50.570Z,70.14
2023-07-26T20:43:17.042Z,70.31
2023-07-26T20:45:43.412Z,69.95
2023-07-26T20:48:09.891Z,69.60
2023-07-26T20:50:36.650Z,70.05
2023-07-26T20:53:03.440Z,70.46
2023-07-26T20:55:29.831Z,70.48
2023-07-26T20:57:56.208Z,70.16
2023-07-26T21:00:22.617Z,70.73
2023-07-26T21:02:49.182Z,71.25
2023-07-26T21:05:16.493Z,71.32
2023-07-26T21:07:43.108Z,72.19
2023-07-26T21:10:09.720Z,72.43
2023-07-26T21:12:38.100Z,72.84
2023-07-26T21:15:06.122Z,73.20
2023-07-26T21:17:32.599Z,72.72
2023-07-26T21:19:59.086Z,72.83
2023-07-26T21:22:25.478Z,72.69
2023-07-26T21:24:51.982Z,72.59
2023-07-26T21:27:18.507Z,73.29
2023-07-26T21:29:44.865Z,73.16
2023-07-26T21:32:11.326Z,72.91
2023-07-26T21:34:37.778Z,73.65
2023-07-26T21:37:04.314Z,73.43
2023-07-26T21:39:30.808Z,73.73
2023-07-26T21:41:57.187Z,73.78
2023-07-26T21:44:27.432Z,74.42
2023-07-26T21:46:55.403Z,73.39
2023-07-26T21:49:21.790Z,73.80
2023-07-26T21:51:48.443Z,74.27
2023-07-26T21:54:15.000Z,73.99
2023-07-26T21:56:41.415Z,74.68
2023-07-26T21:59:09.969Z,74.09
2023-07-26T22:01:36.934Z,74.67
2023-07-26T22:04:03.824Z,74.56
2023-07-26T22:06:30.349Z,74.66
2023-07-26T22:08:56.780Z,74.54
2023-07-26T22:11:23.234Z,74.66
2023-07-26T22:13:49.633Z,74.48
2023-07-26T22:16:16.184Z,73.93
2023-07-26T22:18:42.615Z,73.71
2023-07-26T22:21:16.518Z,74.81
2023-07-26T22:23:43.833Z,74.21
2023-07-26T22:26:14.022Z,74.51
2023-07-26T22:28:42.068Z,75.13
2023-07-26T22:31:08.573Z,75.69
2023-07-26T22:33:35.222Z,76.45
2023-07-26T22:36:04.929Z,77.42
2023-07-26T22:38:31.371Z,76.60
2023-07-26T22:40:57.795Z,76.85
2023-07-26T22:43:24.148Z,77.04
2023-07-26T22:45:50.743Z,76.88
2023-07-26T22:48:17.189Z,77.48
2023-07-26T22:50:43.613Z,77.68
2023-07-26T22:53:10.002Z,77.44
2023-07-26T22:55:36.346Z,77.58
2023-07-26T22:58:02.760Z,77.66
2023-07-26T23:00:29.168Z,77.40
2023-07-26T23:02:55.671Z,77.38
2023-07-26T23:05:22.212Z,78.25
2023-07-26T23:07:48.670Z,77.39
2023-07-26T23:10:15.061Z,77.46
2023-07-26T23:12:41.444Z,76.97
2023-07-26T23:15:07.930Z,76.87
2023-07-26T23:17:34.377Z,76.72
2023-07-26T23:20:00.815Z,76.94
2023-07-26T23:22:27.306Z,76.96
2023-07-26T23:24:53.759Z,76.81
2023-07-26T23:27:20.129Z,76.56
2023-07-26T23:29:46.778Z,77.05
2023-07-26T23:32:13.179Z,76.51
2023-07-26T23:34:39.548Z,76.63
2023-07-26T23:37:06.021Z,77.98
2023-07-26T23:39:33.129Z,78.19
2023-07-26T23:41:59.510Z,77.42
2023-07-26T23:44:26.390Z,77.94
2023-07-26T23:46:52.790Z,77.70
2023-07-26T23:49:19.200Z,78.13
2023-07-26T23:51:45.602Z,78.10
2023-07-26T23:54:11.958Z,78.35
2023-07-26T23:56:38.357Z,78.38
2023-07-26T23:59:04.778Z,78.34
